createdAt,value
2018-03-24T00:01:57.310Z,12.63
2018-03-24T00:04:24.604Z,13.73
2018-03-24T00:06:51.916Z,13.00
2018-03-24T00:09:19.181Z,12.90
2018-03-24T00:11:46.469Z,13.10
2018-03-24T00:14:13.733Z,14.90
2018-03-24T00:16:41.037Z,13.33
2018-03-24T00:19:08.305Z,12.27
2018-03-24T00:21:35.647Z,13.33
2018-03-24T00:24:02.950Z,12.67
2018-03-24T00:26:30.221Z,14.20
2018-03-24T00:28:57.482Z,13.50
2018-03-24T00:31:24.786Z,12.60
2018-03-24T00:33:52.050Z,13.33
2018-03-24T00:36:19.369Z,14.17
2018-03-24T00:38:46.661Z,16.00
2018-03-24T00:41:13.990Z,13.90
2018-03-24T00:43:41.249Z,13.80
2018-03-24T00:46:08.546Z,14.40
2018-03-24T00:48:35.811Z,14.17
2018-03-24T00:51:03.081Z,15.37
2018-03-24T00:53:30.374Z,15.03
2018-03-24T00:55:57.659Z,13.07
2018-03-24T00:58:24.961Z,15.50
2018-03-24T01:00:52.261Z,15.30
2018-03-24T01:03:19.529Z,18.10
2018-03-24T01:05:46.791Z,14.33
2018-03-24T01:08:14.092Z,18.03
2018-03-24T01:10:41.351Z,17.20
2018-03-24T01:13:08.675Z,16.50
2018-03-24T01:15:36.032Z,16.63
2018-03-24T01:18:03.318Z,19.70
2018-03-24T01:20:30.579Z,20.00
2018-03-24T01:22:57.903Z,18.23
2018-03-24T01:25:25.196Z,16.47
2018-03-24T01:27:52.465Z,19.90
2018-03-24T01:30:19.765Z,16.87
2018-03-24T01:32:47.029Z,17.30
2018-03-24T01:35:14.369Z,17.87
2018-03-24T01:37:41.670Z,16.13
2018-03-24T01:40:08.945Z,17.27
2018-03-24T01:42:36.236Z,17.07
2018-03-24T01:45:03.525Z,19.23
2018-03-24T01:47:30.791Z,19.60
2018-03-24T01:49:58.089Z,16.60
2018-03-24T01:52:25.356Z,21.57
2018-03-24T01:54:52.619Z,20.93
2018-03-24T01:57:19.957Z,21.53
2018-03-24T01:59:47.336Z,19.23
2018-03-24T02:02:14.621Z,19.17
2018-03-24T02:04:41.926Z,23.73
2018-03-24T02:07:09.274Z,18.07
2018-03-24T02:09:36.631Z,19.57
2018-03-24T02:12:03.897Z,25.57
2018-03-24T02:14:31.206Z,24.03
2018-03-24T02:16:58.468Z,22.40
2018-03-24T02:19:25.764Z,25.43
2018-03-24T02:21:53.034Z,23.27
2018-03-24T02:24:20.357Z,21.67
2018-03-24T02:26:47.712Z,22.80
2018-03-24T02:29:15.070Z,23.00
2018-03-24T02:31:42.366Z,25.60
2018-03-24T02:34:09.677Z,22.80
2018-03-24T02:36:37.039Z,22.90
2018-03-24T02:39:04.325Z,22.73
2018-03-24T02:41:31.598Z,33.33
2018-03-24T02:43:58.849Z,26.70
2018-03-24T02:46:26.390Z,26.77
2018-03-24T02:48:53.650Z,27.07
2018-03-24T02:51:20.917Z,30.43
2018-03-24T02:53:48.209Z,28.53
2018-03-24T02:56:15.505Z,26.90
2018-03-24T02:58:42.763Z,29.83
2018-03-24T03:01:10.074Z,31.17
2018-03-24T03:03:37.359Z,34.83
2018-03-24T03:06:04.639Z,38.57
2018-03-24T03:08:31.933Z,31.60
2018-03-24T03:10:59.205Z,36.33
2018-03-24T03:13:26.474Z,37.63
2018-03-24T03:15:53.760Z,32.10
2018-03-24T03:18:21.021Z,32.33
2018-03-24T03:20:48.284Z,34.80
2018-03-24T03:23:15.583Z,31.37
2018-03-24T03:25:42.844Z,30.57
2018-03-24T03:28:10.125Z,36.47
2018-03-24T03:30:38.146Z,29.13
2018-03-24T03:33:05.443Z,26.80
2018-03-24T03:35:32.707Z,30.07
2018-03-24T03:37:59.975Z,26.93
2018-03-24T03:40:27.266Z,25.87
2018-03-24T03:42:54.534Z,26.87
2018-03-24T03:45:21.825Z,25.80
2018-03-24T03:47:49.087Z,24.30
2018-03-24T03:50:16.373Z,23.77
2018-03-24T03:52:43.641Z,26.53
2018-03-24T03:55:10.969Z,24.27
2018-03-24T03:57:38.239Z,25.13
2018-03-24T04:00:05.534Z,24.63
2018-03-24T04:02:32.797Z,23.30
2018-03-24T04:05:00.097Z,24.37
2018-03-24T04:07:27.405Z,22.30
2018-03-24T04:09:54.675Z,24.83
2018-03-24T04:12:21.960Z,23.03
2018-03-24T04:14:49.265Z,25.60
2018-03-24T04:17:16.577Z,27.67
2018-03-24T04:19:43.853Z,26.10
2018-03-24T04:22:11.482Z,27.47
2018-03-24T04:24:38.739Z,25.33
2018-03-24T04:27:06.014Z,25.00
2018-03-24T04:29:33.297Z,27.00
2018-03-24T04:32:00.560Z,26.87
2018-03-24T04:34:27.832Z,24.23
2018-03-24T04:36:55.123Z,26.77
2018-03-24T04:39:22.396Z,25.07
2018-03-24T04:41:49.661Z,25.17
2018-03-24T04:44:16.961Z,28.57
2018-03-24T04:46:44.262Z,26.20
2018-03-24T04:49:11.565Z,34.43
2018-03-24T04:51:38.850Z,26.47
2018-03-24T04:54:06.128Z,34.03
2018-03-24T04:56:33.556Z,23.70
2018-03-24T04:59:00.853Z,32.63
2018-03-24T05:01:28.161Z,41.53
2018-03-24T05:03:55.484Z,23.90
2018-03-24T05:06:22.710Z,21.80
2018-03-24T05:08:50.012Z,25.90
2018-03-24T05:11:17.276Z,23.10
2018-03-24T05:13:44.657Z,29.20
2018-03-24T05:16:11.931Z,33.23
2018-03-24T05:18:39.193Z,24.97
2018-03-24T05:21:06.485Z,25.73
2018-03-24T05:23:33.853Z,26.90
2018-03-24T05:26:01.138Z,24.87
2018-03-24T05:28:28.625Z,25.60
2018-03-24T05:30:55.912Z,26.03
2018-03-24T05:33:23.202Z,25.53
2018-03-24T05:35:50.464Z,25.67
2018-03-24T05:38:17.766Z,29.30
2018-03-24T05:40:45.123Z,27.57
2018-03-24T05:43:12.413Z,28.73
2018-03-24T05:45:39.682Z,27.93
2018-03-24T05:48:06.938Z,28.67
2018-03-24T05:50:34.225Z,27.47
2018-03-24T05:53:01.774Z,28.00
2018-03-24T05:55:29.042Z,27.10
2018-03-24T05:57:56.300Z,30.17
2018-03-24T06:00:23.601Z,29.47
2018-03-24T06:02:50.864Z,29.00
2018-03-24T06:05:18.172Z,27.07
2018-03-24T06:07:45.470Z,27.83
2018-03-24T06:10:12.769Z,26.80
2018-03-24T06:12:40.097Z,29.53
2018-03-24T06:15:07.322Z,29.30
2018-03-24T06:17:34.609Z,27.43
2018-03-24T06:20:01.889Z,26.90
2018-03-24T06:22:29.155Z,30.87
2018-03-24T06:24:56.437Z,32.00
2018-03-24T06:27:23.740Z,28.50
2018-03-24T06:29:51.029Z,29.87
2018-03-24T06:32:18.303Z,31.47
2018-03-24T06:34:45.593Z,30.10
2018-03-24T06:37:12.856Z,29.07
2018-03-24T06:39:40.148Z,28.00
2018-03-24T06:42:07.420Z,31.57
2018-03-24T06:44:34.720Z,30.23
2018-03-24T06:47:01.997Z,31.40
2018-03-24T06:49:29.292Z,31.53
2018-03-24T06:51:56.564Z,32.93
2018-03-24T06:54:23.950Z,28.97
2018-03-24T06:56:51.240Z,31.87
2018-03-24T06:59:18.525Z,33.87
2018-03-24T07:01:45.804Z,29.40
2018-03-24T07:04:13.100Z,32.10
2018-03-24T07:06:40.433Z,33.20
2018-03-24T07:09:07.705Z,31.87
2018-03-24T07:11:35.001Z,31.53
2018-03-24T07:14:02.260Z,31.07
2018-03-24T07:16:29.525Z,30.03
2018-03-24T07:18:56.824Z,30.93
2018-03-24T07:21:24.093Z,30.00
2018-03-24T07:23:51.361Z,29.43
2018-03-24T07:26:18.645Z,27.60
2018-03-24T07:28:45.910Z,28.97
2018-03-24T07:31:13.270Z,27.90
2018-03-24T07:33:40.557Z,22.37
2018-03-24T07:36:07.853Z,26.10
2018-03-24T07:38:35.112Z,25.73
2018-03-24T07:41:02.407Z,26.90
2018-03-24T07:43:29.673Z,25.57
2018-03-24T07:45:56.988Z,27.33
2018-03-24T07:48:24.346Z,28.97
2018-03-24T07:50:51.706Z,26.07
2018-03-24T07:53:18.969Z,22.87
2018-03-24T07:55:46.268Z,23.77
2018-03-24T07:58:13.533Z,25.33
2018-03-24T08:00:40.929Z,25.97
2018-03-24T08:03:08.205Z,23.07
2018-03-24T08:05:35.502Z,22.83
2018-03-24T08:08:02.771Z,22.30
2018-03-24T08:10:30.057Z,22.30
2018-03-24T08:12:57.320Z,22.53
2018-03-24T08:15:24.590Z,23.50
2018-03-24T08:17:51.900Z,21.63
2018-03-24T08:20:19.253Z,22.00
2018-03-24T08:22:46.614Z,24.70
2018-03-24T08:25:14.070Z,25.23
2018-03-24T08:27:41.337Z,22.83
2018-03-24T08:30:08.624Z,20.23
2018-03-24T08:32:35.928Z,19.77
2018-03-24T08:35:03.239Z,23.13
2018-03-24T08:37:30.546Z,25.20
2018-03-24T08:39:57.784Z,21.37
2018-03-24T08:42:25.082Z,20.70
2018-03-24T08:44:52.372Z,21.60
2018-03-24T08:47:19.668Z,22.97
2018-03-24T08:49:46.937Z,21.90
2018-03-24T08:52:14.227Z,22.50
2018-03-24T08:54:41.497Z,21.30
2018-03-24T08:57:08.764Z,21.40
2018-03-24T08:59:36.049Z,19.17
2018-03-24T09:02:03.361Z,19.50
2018-03-24T09:04:30.627Z,18.90
2018-03-24T09:06:57.990Z,17.07
2018-03-24T09:09:25.277Z,17.43
2018-03-24T09:11:52.542Z,17.87
2018-03-24T09:14:19.833Z,14.97
2018-03-24T09:16:47.100Z,16.20
2018-03-24T09:19:14.398Z,16.57
2018-03-24T09:21:41.704Z,14.47
2018-03-24T09:24:08.981Z,12.73
2018-03-24T09:26:36.244Z,12.83
2018-03-24T09:29:03.537Z,13.40
2018-03-24T09:31:30.805Z,12.30
2018-03-24T09:33:58.185Z,12.40
2018-03-24T09:36:25.450Z,11.07
2018-03-24T09:38:52.744Z,9.97
2018-03-24T09:41:20.008Z,11.03
2018-03-24T09:43:47.276Z,11.07
2018-03-24T09:46:14.563Z,10.07
2018-03-24T09:48:41.860Z,8.80
2018-03-24T09:51:09.130Z,10.50
2018-03-24T09:53:36.420Z,11.07
2018-03-24T09:56:03.705Z,9.80
2018-03-24T09:58:31.001Z,12.17
2018-03-24T10:00:58.293Z,10.70
2018-03-24T10:03:25.577Z,11.20
2018-03-24T10:05:52.877Z,11.17
2018-03-24T10:08:20.135Z,11.70
2018-03-24T10:10:47.496Z,11.70
2018-03-24T10:13:14.786Z,10.60
2018-03-24T10:15:42.109Z,13.30
2018-03-24T10:18:09.431Z,13.70
2018-03-24T10:20:45.435Z,11.10
2018-03-24T10:23:13.363Z,13.20
2018-03-24T10:25:40.621Z,11.60
2018-03-24T10:28:07.910Z,11.53
2018-03-24T10:30:35.256Z,11.30
2018-03-24T10:33:02.554Z,11.30
2018-03-24T10:35:29.900Z,11.93
2018-03-24T10:38:00.124Z,11.77
2018-03-24T10:40:27.450Z,12.60
2018-03-24T10:43:00.459Z,12.83
2018-03-24T10:45:27.785Z,13.93
2018-03-24T10:47:55.074Z,12.77
2018-03-24T10:50:22.336Z,10.50
2018-03-24T10:52:49.640Z,11.20
2018-03-24T10:55:16.931Z,11.67
2018-03-24T10:57:44.202Z,11.37
2018-03-24T11:00:11.466Z,12.47
2018-03-24T11:02:38.768Z,13.13
2018-03-24T11:05:06.033Z,14.80
2018-03-24T11:07:33.328Z,13.57
2018-03-24T11:10:00.639Z,13.73
2018-03-24T11:12:27.929Z,12.13
2018-03-24T11:14:55.221Z,12.90
2018-03-24T11:17:22.508Z,12.77
2018-03-24T11:19:49.857Z,12.20
2018-03-24T11:22:17.192Z,13.00
2018-03-24T11:24:44.460Z,13.10
2018-03-24T11:27:11.765Z,12.60
2018-03-24T11:29:39.704Z,11.93
2018-03-24T11:32:07.031Z,12.13
2018-03-24T11:34:34.327Z,11.63
2018-03-24T11:37:01.595Z,15.00
2018-03-24T11:39:28.895Z,13.27
2018-03-24T11:41:56.156Z,13.50
2018-03-24T11:44:23.508Z,12.53
2018-03-24T11:46:50.832Z,14.07
2018-03-24T11:49:18.097Z,13.37
2018-03-24T11:51:45.369Z,12.07
2018-03-24T11:54:12.776Z,13.57
2018-03-24T11:56:40.032Z,14.63
2018-03-24T11:59:07.318Z,13.67
2018-03-24T12:01:34.689Z,13.93
2018-03-24T12:04:01.977Z,13.63
2018-03-24T12:06:29.293Z,13.50
2018-03-24T12:08:56.629Z,11.97
2018-03-24T12:11:23.917Z,12.17
2018-03-24T12:13:51.178Z,12.23
2018-03-24T12:16:18.638Z,14.33
2018-03-24T12:18:45.904Z,12.50
2018-03-24T12:21:13.200Z,11.57
2018-03-24T12:23:40.497Z,11.80
2018-03-24T12:26:07.797Z,12.57
2018-03-24T12:28:35.064Z,10.77
2018-03-24T12:31:02.398Z,11.57
2018-03-24T12:33:30.959Z,12.40
2018-03-24T12:35:58.242Z,12.63
2018-03-24T12:38:25.535Z,12.33
2018-03-24T12:40:52.801Z,11.97
2018-03-24T12:43:20.068Z,11.60
2018-03-24T12:45:47.351Z,12.73
2018-03-24T12:48:14.649Z,11.10
2018-03-24T12:50:41.953Z,11.10
2018-03-24T12:53:09.220Z,11.10
2018-03-24T12:55:36.491Z,12.07
2018-03-24T12:58:03.869Z,11.60
2018-03-24T13:00:31.168Z,12.53
2018-03-24T13:02:58.468Z,11.17
2018-03-24T13:05:25.740Z,11.50
2018-03-24T13:07:53.086Z,11.37
2018-03-24T13:10:20.448Z,11.70
2018-03-24T13:12:47.728Z,12.03
2018-03-24T13:15:15.021Z,11.50
2018-03-24T13:17:42.291Z,11.67
2018-03-24T13:20:09.675Z,11.93
2018-03-24T13:22:36.928Z,11.50
2018-03-24T13:25:04.220Z,11.90
2018-03-24T13:27:31.489Z,11.50
2018-03-24T13:29:58.780Z,10.93
2018-03-24T13:32:26.077Z,11.27
2018-03-24T13:34:53.389Z,13.10
2018-03-24T13:37:20.680Z,11.67
2018-03-24T13:39:47.977Z,13.00
2018-03-24T13:42:15.249Z,10.80
2018-03-24T13:44:42.523Z,11.70
2018-03-24T13:47:09.864Z,11.03
2018-03-24T13:49:37.164Z,10.90
2018-03-24T13:52:04.431Z,12.07
2018-03-24T13:54:31.727Z,11.40
2018-03-24T13:56:58.988Z,11.80
2018-03-24T13:59:26.257Z,11.20
2018-03-24T14:01:53.546Z,9.80
2018-03-24T14:04:20.814Z,11.80
2018-03-24T14:06:48.105Z,11.80
2018-03-24T14:09:15.397Z,11.90
2018-03-24T14:11:42.705Z,12.00
2018-03-24T14:14:09.968Z,11.13
2018-03-24T14:16:37.256Z,12.07
2018-03-24T14:19:04.530Z,11.37
2018-03-24T14:21:31.821Z,12.00
2018-03-24T14:23:59.115Z,10.60
2018-03-24T14:26:26.453Z,9.77
2018-03-24T14:28:53.801Z,10.93
2018-03-24T14:31:21.097Z,10.80
2018-03-24T14:33:48.392Z,12.20
2018-03-24T14:36:15.685Z,11.83
2018-03-24T14:38:42.956Z,12.50
2018-03-24T14:41:10.248Z,11.00
2018-03-24T14:43:37.555Z,10.30
2018-03-24T14:46:04.861Z,11.30
2018-03-24T14:48:32.124Z,11.20
2018-03-24T14:50:59.417Z,11.00
2018-03-24T14:53:26.673Z,10.23
2018-03-24T14:55:53.957Z,11.00
2018-03-24T14:58:21.230Z,12.90
2018-03-24T15:00:48.584Z,11.60
2018-03-24T15:03:15.882Z,10.87
2018-03-24T15:05:43.146Z,10.67
2018-03-24T15:08:10.445Z,11.77
2018-03-24T15:10:37.721Z,11.90
2018-03-24T15:13:05.020Z,10.70
2018-03-24T15:15:32.312Z,11.97
2018-03-24T15:17:59.670Z,11.67
2018-03-24T15:20:26.952Z,10.37
2018-03-24T15:22:54.236Z,11.37
2018-03-24T15:25:21.526Z,11.60
2018-03-24T15:27:48.800Z,11.53
2018-03-24T15:30:21.880Z,9.97
2018-03-24T15:32:51.125Z,10.73
2018-03-24T15:35:24.254Z,11.20
2018-03-24T15:37:51.545Z,11.10
2018-03-24T15:40:18.809Z,11.43
2018-03-24T15:42:46.092Z,11.03
2018-03-24T15:45:13.912Z,10.37
2018-03-24T15:47:41.258Z,11.40
2018-03-24T15:50:08.513Z,9.87
2018-03-24T15:52:35.820Z,11.23
2018-03-24T15:55:03.093Z,11.60
2018-03-24T15:57:30.357Z,10.87
2018-03-24T15:59:57.645Z,11.90
2018-03-24T16:02:24.905Z,10.63
2018-03-24T16:04:52.232Z,11.27
2018-03-24T16:07:19.520Z,11.60
2018-03-24T16:09:46.784Z,13.83
2018-03-24T16:12:14.079Z,12.50
2018-03-24T16:14:41.353Z,11.87
2018-03-24T16:17:08.649Z,12.50
2018-03-24T16:19:35.917Z,12.53
2018-03-24T16:22:03.181Z,12.40
2018-03-24T16:24:30.469Z,11.20
2018-03-24T16:26:57.740Z,11.77
2018-03-24T16:29:25.035Z,11.20
2018-03-24T16:31:52.293Z,11.80
2018-03-24T16:34:19.605Z,12.93
2018-03-24T16:36:46.870Z,11.90
2018-03-24T16:39:14.139Z,11.80
2018-03-24T16:41:41.424Z,12.37
2018-03-24T16:44:08.696Z,11.17
2018-03-24T16:46:35.985Z,13.63
2018-03-24T16:49:03.310Z,12.17
2018-03-24T16:51:30.604Z,11.20
2018-03-24T16:53:57.875Z,11.37
2018-03-24T16:56:25.166Z,11.60
2018-03-24T16:58:52.685Z,12.30
2018-03-24T17:01:19.966Z,10.30
2018-03-24T17:03:47.331Z,10.93
2018-03-24T17:06:14.593Z,10.93
2018-03-24T17:08:41.888Z,12.50
2018-03-24T17:11:09.201Z,12.80
2018-03-24T17:13:36.460Z,12.03
2018-03-24T17:16:03.752Z,11.80
2018-03-24T17:18:31.056Z,12.30
2018-03-24T17:20:58.316Z,10.53
2018-03-24T17:23:25.605Z,11.60
2018-03-24T17:25:52.876Z,11.67
2018-03-24T17:28:20.151Z,10.97
2018-03-24T17:30:47.438Z,10.20
2018-03-24T17:33:14.742Z,10.00
2018-03-24T17:35:42.956Z,10.00
2018-03-24T17:38:10.314Z,10.90
2018-03-24T17:40:37.601Z,10.43
2018-03-24T17:43:04.860Z,9.37
2018-03-24T17:45:32.186Z,10.10
2018-03-24T17:47:59.464Z,10.47
2018-03-24T17:50:26.725Z,10.73
2018-03-24T17:52:54.008Z,9.50
2018-03-24T17:55:21.269Z,9.13
2018-03-24T17:57:48.533Z,9.10
2018-03-24T18:00:15.819Z,9.43
2018-03-24T18:02:43.086Z,10.53
2018-03-24T18:05:10.512Z,10.47
2018-03-24T18:07:37.836Z,10.13
2018-03-24T18:10:05.115Z,10.67
2018-03-24T18:12:32.372Z,10.17
2018-03-24T18:14:59.724Z,9.70
2018-03-24T18:17:27.028Z,9.53
2018-03-24T18:19:54.292Z,10.57
2018-03-24T18:22:21.586Z,10.60
2018-03-24T18:24:48.884Z,10.10
2018-03-24T18:27:16.145Z,9.53
2018-03-24T18:29:43.433Z,10.57
2018-03-24T18:32:10.688Z,9.40
2018-03-24T18:34:37.949Z,10.30
2018-03-24T18:37:05.238Z,9.80
2018-03-24T18:39:32.517Z,9.80
2018-03-24T18:41:59.785Z,9.50
2018-03-24T18:44:27.041Z,9.73
2018-03-24T18:46:54.390Z,10.60
2018-03-24T18:49:21.673Z,9.97
2018-03-24T18:51:48.966Z,10.80
2018-03-24T18:54:16.289Z,10.70
2018-03-24T18:56:43.554Z,10.10
2018-03-24T18:59:10.848Z,11.00
2018-03-24T19:01:38.113Z,12.00
2018-03-24T19:04:05.407Z,12.00
2018-03-24T19:06:32.761Z,11.43
2018-03-24T19:09:00.046Z,12.33
2018-03-24T19:11:27.374Z,10.90
2018-03-24T19:13:54.638Z,11.63
2018-03-24T19:16:21.932Z,10.37
2018-03-24T19:18:49.202Z,10.10
2018-03-24T19:21:16.584Z,12.50
2018-03-24T19:23:43.861Z,11.70
2018-03-24T19:26:11.400Z,12.00
2018-03-24T19:28:38.757Z,11.90
2018-03-24T19:31:06.020Z,13.30
2018-03-24T19:33:33.318Z,11.57
2018-03-24T19:36:00.618Z,10.60
2018-03-24T19:38:27.883Z,12.13
2018-03-24T19:40:55.140Z,11.40
2018-03-24T19:43:22.438Z,11.40
2018-03-24T19:45:49.720Z,12.63
2018-03-24T19:48:16.983Z,11.73
2018-03-24T19:50:44.271Z,12.70
2018-03-24T19:53:11.538Z,12.03
2018-03-24T19:55:38.858Z,13.70
2018-03-24T19:58:06.161Z,11.90
2018-03-24T20:00:33.430Z,12.47
2018-03-24T20:03:00.718Z,12.30
2018-03-24T20:05:28.030Z,12.90
2018-03-24T20:07:55.300Z,13.53
2018-03-24T20:10:22.568Z,12.20
2018-03-24T20:12:49.862Z,11.63
2018-03-24T20:15:17.152Z,13.00
2018-03-24T20:17:44.427Z,12.30
2018-03-24T20:20:11.729Z,11.23
2018-03-24T20:22:39.057Z,11.90
2018-03-24T20:25:06.400Z,12.37
2018-03-24T20:27:33.693Z,12.73
2018-03-24T20:30:00.961Z,11.27
2018-03-24T20:32:28.857Z,11.73
2018-03-24T20:34:56.157Z,12.13
2018-03-24T20:37:23.440Z,12.87
2018-03-24T20:39:50.692Z,11.80
2018-03-24T20:42:18.027Z,12.93
2018-03-24T20:44:45.269Z,11.80
2018-03-24T20:47:12.538Z,12.70
2018-03-24T20:49:39.836Z,12.17
2018-03-24T20:52:07.104Z,11.90
2018-03-24T20:54:34.392Z,12.73
2018-03-24T20:57:01.727Z,11.70
2018-03-24T20:59:29.016Z,12.87
2018-03-24T21:01:56.336Z,12.53
2018-03-24T21:04:23.721Z,11.70
2018-03-24T21:06:50.993Z,13.07
2018-03-24T21:09:18.288Z,12.37
2018-03-24T21:11:45.652Z,14.13
2018-03-24T21:14:12.915Z,12.80
2018-03-24T21:16:40.211Z,11.83
2018-03-24T21:19:07.532Z,12.27
2018-03-24T21:21:34.820Z,14.07
2018-03-24T21:24:02.128Z,11.83
2018-03-24T21:26:29.411Z,12.73
2018-03-24T21:28:56.752Z,13.90
2018-03-24T21:31:24.270Z,12.00
2018-03-24T21:33:51.913Z,12.03
2018-03-24T21:36:19.167Z,15.30
2018-03-24T21:38:46.484Z,12.30
2018-03-24T21:41:13.805Z,12.47
2018-03-24T21:43:41.023Z,13.10
2018-03-24T21:46:08.305Z,12.27
2018-03-24T21:48:35.611Z,12.90
2018-03-24T21:51:02.868Z,13.80
2018-03-24T21:53:30.133Z,13.63
2018-03-24T21:55:57.420Z,14.03
2018-03-24T21:58:24.730Z,13.43
2018-03-24T22:00:51.999Z,13.97
2018-03-24T22:03:19.309Z,14.00
2018-03-24T22:05:46.658Z,13.00
2018-03-24T22:08:13.949Z,13.93
2018-03-24T22:10:41.213Z,12.30
2018-03-24T22:13:08.505Z,12.33
2018-03-24T22:15:35.773Z,12.87
2018-03-24T22:18:03.061Z,12.07
2018-03-24T22:20:30.393Z,15.60
2018-03-24T22:22:57.658Z,13.60
2018-03-24T22:25:24.990Z,13.00
2018-03-24T22:27:52.344Z,12.90
2018-03-24T22:30:19.615Z,13.07
2018-03-24T22:32:46.918Z,12.50
2018-03-24T22:35:14.198Z,14.17
2018-03-24T22:37:41.457Z,13.00
2018-03-24T22:40:08.827Z,13.80
2018-03-24T22:42:36.089Z,13.33
2018-03-24T22:45:03.349Z,13.37
2018-03-24T22:47:30.684Z,14.30
2018-03-24T22:49:57.949Z,13.43
2018-03-24T22:52:25.253Z,13.37
2018-03-24T22:54:52.545Z,12.20
2018-03-24T22:57:19.832Z,13.27
2018-03-24T22:59:47.099Z,13.17
2018-03-24T23:02:14.382Z,12.17
2018-03-24T23:04:41.661Z,11.80
2018-03-24T23:07:09.020Z,12.80
2018-03-24T23:09:36.321Z,11.90
2018-03-24T23:12:03.656Z,13.40
2018-03-24T23:14:30.885Z,14.67
2018-03-24T23:16:58.156Z,13.20
2018-03-24T23:19:25.440Z,13.77
2018-03-24T23:21:52.705Z,13.50
2018-03-24T23:24:19.989Z,14.00
2018-03-24T23:26:47.276Z,12.23
2018-03-24T23:29:14.557Z,12.03
2018-03-24T23:31:41.836Z,13.50
2018-03-24T23:34:09.098Z,13.70
2018-03-24T23:36:36.362Z,14.00
2018-03-24T23:39:03.653Z,12.73
2018-03-24T23:41:30.917Z,13.07
2018-03-24T23:43:58.233Z,13.40
2018-03-24T23:46:25.577Z,12.93
2018-03-24T23:48:52.838Z,13.77
2018-03-24T23:51:20.193Z,15.03
2018-03-24T23:53:47.472Z,15.50
2018-03-24T23:56:14.746Z,15.27
2018-03-24T23:58:42.036Z,14.77
